sensor_id;sensor_type;location;lat;lon;timestamp;P1;durP1;ratioP1;P2;durP2;ratioP2
2191;SDS011;1102;49.718;11.902;2022-08-01T00:00:04;7.33;;;6.73;;
2191;SDS011;1102;49.718;11.902;2022-08-01T00:02:35;7.00;;;6.40;;
2191;SDS011;1102;49.718;11.902;2022-08-01T00:05:04;5.63;;;5.13;;
2191;SDS011;1102;49.718;11.902;2022-08-01T00:07:33;9.33;;;6.20;;
2191;SDS011;1102;49.718;11.902;2022-08-01T00:10:01;6.73;;;6.13;;
2191;SDS011;1102;49.718;11.902;2022-08-01T00:12:29;7.30;;;6.60;;
2191;SDS011;1102;49.718;11.902;2022-08-01T00:14:56;7.07;;;6.37;;
2191;SDS011;1102;49.718;11.902;2022-08-01T00:17:22;6.77;;;5.73;;
2191;SDS011;1102;49.718;11.902;2022-08-01T00:19:49;6.73;;;6.20;;
2191;SDS011;1102;49.718;11.902;2022-08-01T00:22:16;6.53;;;6.00;;
2191;SDS011;1102;49.718;11.902;2022-08-01T00:24:43;6.90;;;6.03;;
2191;SDS011;1102;49.718;11.902;2022-08-01T00:27:09;9.20;;;6.00;;
2191;SDS011;1102;49.718;11.902;2022-08-01T00:29:36;6.80;;;6.17;;
2191;SDS011;1102;49.718;11.902;2022-08-01T00:32:23;6.73;;;6.10;;
2191;SDS011;1102;49.718;11.902;2022-08-01T00:34:50;6.20;;;5.53;;
2191;SDS011;1102;49.718;11.902;2022-08-01T00:37:17;8.10;;;6.20;;
2191;SDS011;1102;49.718;11.902;2022-08-01T00:39:44;6.40;;;5.80;;
2191;SDS011;1102;49.718;11.902;2022-08-01T00:42:11;6.47;;;6.07;;
2191;SDS011;1102;49.718;11.902;2022-08-01T00:44:38;6.40;;;6.00;;
2191;SDS011;1102;49.718;11.902;2022-08-01T00:47:06;7.60;;;5.83;;
2191;SDS011;1102;49.718;11.902;2022-08-01T00:49:33;6.30;;;5.70;;
2191;SDS011;1102;49.718;11.902;2022-08-01T00:52:00;6.60;;;6.10;;
2191;SDS011;1102;49.718;11.902;2022-08-01T00:54:31;6.70;;;5.70;;
2191;SDS011;1102;49.718;11.902;2022-08-01T00:56:58;7.40;;;6.60;;
2191;SDS011;1102;49.718;11.902;2022-08-01T00:59:25;7.17;;;6.57;;
2191;SDS011;1102;49.718;11.902;2022-08-01T01:01:52;7.87;;;6.37;;
2191;SDS011;1102;49.718;11.902;2022-08-01T01:04:20;6.50;;;6.00;;
2191;SDS011;1102;49.718;11.902;2022-08-01T01:10:00;7.93;;;7.20;;
2191;SDS011;1102;49.718;11.902;2022-08-01T01:20:51;8.00;;;7.40;;
2191;SDS011;1102;49.718;11.902;2022-08-01T01:23:35;9.40;;;8.50;;
2191;SDS011;1102;49.718;11.902;2022-08-01T01:31:40;9.90;;;8.93;;
2191;SDS011;1102;49.718;11.902;2022-08-01T01:34:11;9.50;;;8.80;;
2191;SDS011;1102;49.718;11.902;2022-08-01T01:36:40;8.03;;;7.33;;
2191;SDS011;1102;49.718;11.902;2022-08-01T01:39:09;7.20;;;6.50;;
2191;SDS011;1102;49.718;11.902;2022-08-01T01:41:37;8.23;;;7.63;;
2191;SDS011;1102;49.718;11.902;2022-08-01T01:44:05;9.13;;;7.10;;
2191;SDS011;1102;49.718;11.902;2022-08-01T01:46:34;9.27;;;8.37;;
2191;SDS011;1102;49.718;11.902;2022-08-01T01:49:02;8.80;;;7.90;;
2191;SDS011;1102;49.718;11.902;2022-08-01T01:51:29;9.77;;;8.97;;
2191;SDS011;1102;49.718;11.902;2022-08-01T01:53:58;8.37;;;7.57;;
2191;SDS011;1102;49.718;11.902;2022-08-01T01:56:27;8.90;;;8.17;;
2191;SDS011;1102;49.718;11.902;2022-08-01T01:59:00;9.03;;;8.40;;
2191;SDS011;1102;49.718;11.902;2022-08-01T02:01:29;9.77;;;8.57;;
2191;SDS011;1102;49.718;11.902;2022-08-01T02:04:19;8.70;;;7.90;;
2191;SDS011;1102;49.718;11.902;2022-08-01T02:06:50;10.63;;;7.63;;
2191;SDS011;1102;49.718;11.902;2022-08-01T02:09:19;7.37;;;6.80;;
2191;SDS011;1102;49.718;11.902;2022-08-01T02:11:48;7.77;;;6.97;;
2191;SDS011;1102;49.718;11.902;2022-08-01T02:14:33;8.77;;;8.03;;
2191;SDS011;1102;49.718;11.902;2022-08-01T02:17:01;7.93;;;7.20;;
2191;SDS011;1102;49.718;11.902;2022-08-01T02:19:30;8.60;;;7.70;;
2191;SDS011;1102;49.718;11.902;2022-08-01T02:22:50;7.73;;;7.10;;
2191;SDS011;1102;49.718;11.902;2022-08-01T02:27:34;8.77;;;7.30;;
2191;SDS011;1102;49.718;11.902;2022-08-01T02:30:08;7.30;;;6.73;;
2191;SDS011;1102;49.718;11.902;2022-08-01T02:32:39;7.00;;;6.50;;
2191;SDS011;1102;49.718;11.902;2022-08-01T02:35:22;7.27;;;6.77;;
2191;SDS011;1102;49.718;11.902;2022-08-01T02:37:54;7.83;;;7.23;;
2191;SDS011;1102;49.718;11.902;2022-08-01T02:40:23;7.87;;;7.17;;
2191;SDS011;1102;49.718;11.902;2022-08-01T02:42:54;7.60;;;6.90;;
2191;SDS011;1102;49.718;11.902;2022-08-01T02:45:24;7.40;;;6.90;;
2191;SDS011;1102;49.718;11.902;2022-08-01T02:47:54;6.33;;;5.93;;
2191;SDS011;1102;49.718;11.902;2022-08-01T02:50:25;6.93;;;6.43;;
2191;SDS011;1102;49.718;11.902;2022-08-01T02:52:54;7.63;;;6.00;;
2191;SDS011;1102;49.718;11.902;2022-08-01T02:55:23;7.10;;;6.60;;
2191;SDS011;1102;49.718;11.902;2022-08-01T02:57:51;7.13;;;6.63;;
2191;SDS011;1102;49.718;11.902;2022-08-01T03:00:26;8.27;;;7.47;;
2191;SDS011;1102;49.718;11.902;2022-08-01T03:02:53;6.70;;;6.20;;
2191;SDS011;1102;49.718;11.902;2022-08-01T03:05:23;7.57;;;6.90;;
2191;SDS011;1102;49.718;11.902;2022-08-01T03:07:51;7.10;;;6.60;;
2191;SDS011;1102;49.718;11.902;2022-08-01T03:10:19;8.30;;;7.70;;
2191;SDS011;1102;49.718;11.902;2022-08-01T03:12:46;7.90;;;7.40;;
2191;SDS011;1102;49.718;11.902;2022-08-01T03:15:16;10.77;;;7.50;;
2191;SDS011;1102;49.718;11.902;2022-08-01T03:17:45;8.10;;;7.40;;
2191;SDS011;1102;49.718;11.902;2022-08-01T03:20:14;8.10;;;7.50;;
2191;SDS011;1102;49.718;11.902;2022-08-01T03:22:43;7.37;;;6.77;;
2191;SDS011;1102;49.718;11.902;2022-08-01T03:25:12;7.67;;;7.00;;
2191;SDS011;1102;49.718;11.902;2022-08-01T03:27:40;7.80;;;7.30;;
2191;SDS011;1102;49.718;11.902;2022-08-01T03:30:09;8.10;;;7.40;;
2191;SDS011;1102;49.718;11.902;2022-08-01T03:32:37;8.60;;;7.90;;
2191;SDS011;1102;49.718;11.902;2022-08-01T03:35:05;7.93;;;6.70;;
2191;SDS011;1102;49.718;11.902;2022-08-01T03:37:34;8.03;;;7.20;;
2191;SDS011;1102;49.718;11.902;2022-08-01T03:43:16;6.90;;;6.40;;
2191;SDS011;1102;49.718;11.902;2022-08-01T03:45:49;8.00;;;7.40;;
2191;SDS011;1102;49.718;11.902;2022-08-01T03:48:18;7.00;;;6.40;;
2191;SDS011;1102;49.718;11.902;2022-08-01T03:50:48;9.70;;;6.90;;
2191;SDS011;1102;49.718;11.902;2022-08-01T03:53:19;7.67;;;7.17;;
2191;SDS011;1102;49.718;11.902;2022-08-01T03:55:48;7.67;;;6.80;;
2191;SDS011;1102;49.718;11.902;2022-08-01T03:58:16;7.87;;;7.37;;
2191;SDS011;1102;49.718;11.902;2022-08-01T04:00:43;8.03;;;7.20;;
2191;SDS011;1102;49.718;11.902;2022-08-01T04:03:13;9.20;;;7.80;;
2191;SDS011;1102;49.718;11.902;2022-08-01T04:05:41;8.27;;;7.60;;
2191;SDS011;1102;49.718;11.902;2022-08-01T04:08:08;8.10;;;7.60;;
2191;SDS011;1102;49.718;11.902;2022-08-01T04:10:36;9.03;;;8.20;;
2191;SDS011;1102;49.718;11.902;2022-08-01T04:13:03;8.93;;;7.10;;
2191;SDS011;1102;49.718;11.902;2022-08-01T04:15:30;8.83;;;7.93;;
2191;SDS011;1102;49.718;11.902;2022-08-01T04:17:57;9.73;;;7.10;;
2191;SDS011;1102;49.718;11.902;2022-08-01T04:20:24;7.50;;;7.00;;
2191;SDS011;1102;49.718;11.902;2022-08-01T04:22:51;8.40;;;7.47;;
2191;SDS011;1102;49.718;11.902;2022-08-01T04:25:33;7.47;;;6.97;;
2191;SDS011;1102;49.718;11.902;2022-08-01T04:28:01;7.83;;;7.07;;
2191;SDS011;1102;49.718;11.902;2022-08-01T04:30:31;9.40;;;6.80;;
2191;SDS011;1102;49.718;11.902;2022-08-01T04:33:01;6.87;;;6.07;;
2191;SDS011;1102;49.718;11.902;2022-08-01T04:35:31;10.50;;;7.70;;
2191;SDS011;1102;49.718;11.902;2022-08-01T04:38:21;11.00;;;7.93;;
2191;SDS011;1102;49.718;11.902;2022-08-01T04:40:53;8.50;;;6.77;;
2191;SDS011;1102;49.718;11.902;2022-08-01T04:43:22;8.63;;;7.83;;
2191;SDS011;1102;49.718;11.902;2022-08-01T04:45:50;10.10;;;7.60;;
2191;SDS011;1102;49.718;11.902;2022-08-01T04:48:17;8.60;;;7.80;;
2191;SDS011;1102;49.718;11.902;2022-08-01T04:50:48;9.33;;;7.00;;
2191;SDS011;1102;49.718;11.902;2022-08-01T04:53:15;8.50;;;7.73;;
2191;SDS011;1102;49.718;11.902;2022-08-01T04:55:44;7.80;;;7.13;;
2191;SDS011;1102;49.718;11.902;2022-08-01T04:58:15;8.30;;;6.60;;
2191;SDS011;1102;49.718;11.902;2022-08-01T05:00:44;7.10;;;6.50;;
2191;SDS011;1102;49.718;11.902;2022-08-01T05:03:11;7.13;;;6.63;;
2191;SDS011;1102;49.718;11.902;2022-08-01T05:05:38;7.17;;;6.67;;
2191;SDS011;1102;49.718;11.902;2022-08-01T05:08:05;8.80;;;8.00;;
2191;SDS011;1102;49.718;11.902;2022-08-01T05:10:32;7.77;;;6.97;;
2191;SDS011;1102;49.718;11.902;2022-08-01T05:13:00;7.90;;;7.20;;
2191;SDS011;1102;49.718;11.902;2022-08-01T05:15:27;7.70;;;7.10;;
2191;SDS011;1102;49.718;11.902;2022-08-01T05:17:55;11.13;;;7.13;;
2191;SDS011;1102;49.718;11.902;2022-08-01T05:20:22;7.63;;;6.93;;
2191;SDS011;1102;49.718;11.902;2022-08-01T05:22:49;7.47;;;6.77;;
2191;SDS011;1102;49.718;11.902;2022-08-01T05:25:16;6.97;;;6.47;;
2191;SDS011;1102;49.718;11.902;2022-08-01T05:27:45;7.80;;;7.10;;
2191;SDS011;1102;49.718;11.902;2022-08-01T05:30:16;6.30;;;5.70;;
2191;SDS011;1102;49.718;11.902;2022-08-01T05:32:43;6.60;;;6.10;;
2191;SDS011;1102;49.718;11.902;2022-08-01T05:35:09;7.67;;;6.87;;
2191;SDS011;1102;49.718;11.902;2022-08-01T05:37:36;7.30;;;6.07;;
2191;SDS011;1102;49.718;11.902;2022-08-01T05:40:03;6.60;;;6.10;;
2191;SDS011;1102;49.718;11.902;2022-08-01T05:42:31;6.53;;;6.00;;
2191;SDS011;1102;49.718;11.902;2022-08-01T05:44:58;5.03;;;4.60;;
2191;SDS011;1102;49.718;11.902;2022-08-01T05:47:25;9.23;;;5.20;;
2191;SDS011;1102;49.718;11.902;2022-08-01T05:49:51;8.70;;;5.20;;
2191;SDS011;1102;49.718;11.902;2022-08-01T05:52:18;5.33;;;4.60;;
2191;SDS011;1102;49.718;11.902;2022-08-01T05:54:45;7.07;;;4.27;;
2191;SDS011;1102;49.718;11.902;2022-08-01T05:57:11;11.87;;;5.00;;
2191;SDS011;1102;49.718;11.902;2022-08-01T05:59:40;6.47;;;4.30;;
2191;SDS011;1102;49.718;11.902;2022-08-01T06:02:07;4.97;;;3.90;;
2191;SDS011;1102;49.718;11.902;2022-08-01T06:04:34;5.47;;;3.83;;
2191;SDS011;1102;49.718;11.902;2022-08-01T06:07:01;4.40;;;3.63;;
2191;SDS011;1102;49.718;11.902;2022-08-01T06:09:28;4.10;;;2.83;;
2191;SDS011;1102;49.718;11.902;2022-08-01T06:11:55;3.00;;;2.80;;
2191;SDS011;1102;49.718;11.902;2022-08-01T06:14:21;3.77;;;3.37;;
2191;SDS011;1102;49.718;11.902;2022-08-01T06:16:48;3.93;;;3.30;;
2191;SDS011;1102;49.718;11.902;2022-08-01T06:19:15;5.13;;;2.97;;
2191;SDS011;1102;49.718;11.902;2022-08-01T06:21:41;4.33;;;3.00;;
2191;SDS011;1102;49.718;11.902;2022-08-01T06:24:08;5.43;;;4.77;;
2191;SDS011;1102;49.718;11.902;2022-08-01T06:26:35;2.80;;;2.60;;
2191;SDS011;1102;49.718;11.902;2022-08-01T06:29:03;3.03;;;2.83;;
2191;SDS011;1102;49.718;11.902;2022-08-01T06:31:30;4.03;;;3.73;;
2191;SDS011;1102;49.718;11.902;2022-08-01T06:33:59;3.67;;;3.40;;
2191;SDS011;1102;49.718;11.902;2022-08-01T06:36:26;4.43;;;3.00;;
2191;SDS011;1102;49.718;11.902;2022-08-01T06:38:53;4.07;;;3.17;;
2191;SDS011;1102;49.718;11.902;2022-08-01T06:41:19;3.93;;;2.70;;
2191;SDS011;1102;49.718;11.902;2022-08-01T06:43:46;3.73;;;3.40;;
2191;SDS011;1102;49.718;11.902;2022-08-01T06:46:13;4.03;;;3.00;;
2191;SDS011;1102;49.718;11.902;2022-08-01T06:48:40;4.27;;;2.87;;
2191;SDS011;1102;49.718;11.902;2022-08-01T06:51:06;2.50;;;2.33;;
2191;SDS011;1102;49.718;11.902;2022-08-01T06:53:39;3.30;;;3.10;;
2191;SDS011;1102;49.718;11.902;2022-08-01T06:56:06;2.97;;;2.77;;
2191;SDS011;1102;49.718;11.902;2022-08-01T06:58:34;4.77;;;3.07;;
2191;SDS011;1102;49.718;11.902;2022-08-01T07:01:03;3.60;;;2.80;;
2191;SDS011;1102;49.718;11.902;2022-08-01T07:03:33;3.67;;;3.33;;
2191;SDS011;1102;49.718;11.902;2022-08-01T07:06:23;3.07;;;2.87;;
2191;SDS011;1102;49.718;11.902;2022-08-01T07:08:52;3.90;;;2.63;;
2191;SDS011;1102;49.718;11.902;2022-08-01T07:11:19;3.80;;;2.90;;
2191;SDS011;1102;49.718;11.902;2022-08-01T07:13:47;3.63;;;3.30;;
2191;SDS011;1102;49.718;11.902;2022-08-01T07:16:14;3.00;;;2.80;;
2191;SDS011;1102;49.718;11.902;2022-08-01T07:18:41;3.10;;;2.80;;
2191;SDS011;1102;49.718;11.902;2022-08-01T07:21:08;3.47;;;3.17;;
2191;SDS011;1102;49.718;11.902;2022-08-01T07:23:55;6.23;;;5.63;;
2191;SDS011;1102;49.718;11.902;2022-08-01T07:26:22;3.20;;;3.00;;
2191;SDS011;1102;49.718;11.902;2022-08-01T07:28:48;3.57;;;3.37;;
2191;SDS011;1102;49.718;11.902;2022-08-01T07:31:15;3.03;;;2.83;;
2191;SDS011;1102;49.718;11.902;2022-08-01T07:33:42;3.40;;;3.10;;
2191;SDS011;1102;49.718;11.902;2022-08-01T07:36:17;4.10;;;3.80;;
2191;SDS011;1102;49.718;11.902;2022-08-01T07:38:45;3.43;;;2.90;;
2191;SDS011;1102;49.718;11.902;2022-08-01T07:41:12;3.83;;;3.63;;
2191;SDS011;1102;49.718;11.902;2022-08-01T07:43:39;3.20;;;3.00;;
2191;SDS011;1102;49.718;11.902;2022-08-01T07:46:06;3.60;;;3.40;;
2191;SDS011;1102;49.718;11.902;2022-08-01T07:48:33;6.10;;;3.43;;
2191;SDS011;1102;49.718;11.902;2022-08-01T07:50:59;3.47;;;3.17;;
2191;SDS011;1102;49.718;11.902;2022-08-01T07:53:26;3.63;;;3.33;;
2191;SDS011;1102;49.718;11.902;2022-08-01T07:55:53;3.50;;;3.20;;
2191;SDS011;1102;49.718;11.902;2022-08-01T07:58:20;3.20;;;3.00;;
2191;SDS011;1102;49.718;11.902;2022-08-01T08:00:46;3.60;;;3.13;;
2191;SDS011;1102;49.718;11.902;2022-08-01T08:03:13;4.30;;;3.43;;
2191;SDS011;1102;49.718;11.902;2022-08-01T08:05:40;3.10;;;2.90;;
2191;SDS011;1102;49.718;11.902;2022-08-01T08:08:24;2.80;;;2.60;;
2191;SDS011;1102;49.718;11.902;2022-08-01T08:10:51;3.57;;;3.30;;
2191;SDS011;1102;49.718;11.902;2022-08-01T08:13:17;3.57;;;3.00;;
2191;SDS011;1102;49.718;11.902;2022-08-01T08:15:46;2.70;;;2.50;;
2191;SDS011;1102;49.718;11.902;2022-08-01T08:18:14;2.80;;;2.60;;
2191;SDS011;1102;49.718;11.902;2022-08-01T08:20:40;3.27;;;2.97;;
2191;SDS011;1102;49.718;11.902;2022-08-01T08:23:07;3.50;;;3.20;;
2191;SDS011;1102;49.718;11.902;2022-08-01T08:26:10;3.47;;;3.10;;
2191;SDS011;1102;49.718;11.902;2022-08-01T08:28:37;3.13;;;2.63;;
2191;SDS011;1102;49.718;11.902;2022-08-01T08:31:06;2.93;;;2.73;;
2191;SDS011;1102;49.718;11.902;2022-08-01T08:33:53;4.00;;;3.50;;
2191;SDS011;1102;49.718;11.902;2022-08-01T08:36:20;3.00;;;2.80;;
2191;SDS011;1102;49.718;11.902;2022-08-01T08:38:56;2.93;;;2.73;;
2191;SDS011;1102;49.718;11.902;2022-08-01T08:41:23;4.33;;;3.17;;
2191;SDS011;1102;49.718;11.902;2022-08-01T08:43:49;3.70;;;3.30;;
2191;SDS011;1102;49.718;11.902;2022-08-01T08:46:16;3.17;;;2.97;;
2191;SDS011;1102;49.718;11.902;2022-08-01T08:48:54;2.80;;;2.60;;
2191;SDS011;1102;49.718;11.902;2022-08-01T08:51:24;3.73;;;3.43;;
2191;SDS011;1102;49.718;11.902;2022-08-01T08:53:54;3.40;;;3.07;;
2191;SDS011;1102;49.718;11.902;2022-08-01T08:56:23;2.87;;;2.60;;
2191;SDS011;1102;49.718;11.902;2022-08-01T08:58:53;2.87;;;2.57;;
2191;SDS011;1102;49.718;11.902;2022-08-01T09:01:20;2.73;;;2.53;;
2191;SDS011;1102;49.718;11.902;2022-08-01T09:03:48;3.00;;;2.80;;
2191;SDS011;1102;49.718;11.902;2022-08-01T09:06:15;3.87;;;2.30;;
2191;SDS011;1102;49.718;11.902;2022-08-01T09:08:42;2.60;;;2.40;;
2191;SDS011;1102;49.718;11.902;2022-08-01T09:11:08;2.43;;;2.23;;
2191;SDS011;1102;49.718;11.902;2022-08-01T09:13:35;2.87;;;2.60;;
2191;SDS011;1102;49.718;11.902;2022-08-01T09:16:15;3.30;;;3.00;;
2191;SDS011;1102;49.718;11.902;2022-08-01T09:18:43;3.00;;;2.70;;
2191;SDS011;1102;49.718;11.902;2022-08-01T09:21:19;2.40;;;2.20;;
2191;SDS011;1102;49.718;11.902;2022-08-01T09:23:53;2.03;;;1.93;;
2191;SDS011;1102;49.718;11.902;2022-08-01T09:26:22;2.20;;;2.10;;
2191;SDS011;1102;49.718;11.902;2022-08-01T09:28:56;2.17;;;1.87;;
2191;SDS011;1102;49.718;11.902;2022-08-01T09:31:26;2.40;;;1.90;;
2191;SDS011;1102;49.718;11.902;2022-08-01T09:34:04;2.20;;;2.00;;
2191;SDS011;1102;49.718;11.902;2022-08-01T09:36:44;2.27;;;2.07;;
2191;SDS011;1102;49.718;11.902;2022-08-01T09:39:27;2.40;;;2.07;;
2191;SDS011;1102;49.718;11.902;2022-08-01T09:42:00;2.63;;;2.43;;
2191;SDS011;1102;49.718;11.902;2022-08-01T09:47:11;3.63;;;2.23;;
2191;SDS011;1102;49.718;11.902;2022-08-01T09:49:41;2.07;;;1.90;;
2191;SDS011;1102;49.718;11.902;2022-08-01T09:52:18;2.50;;;2.30;;
2191;SDS011;1102;49.718;11.902;2022-08-01T09:55:00;4.53;;;2.30;;
2191;SDS011;1102;49.718;11.902;2022-08-01T09:57:30;2.70;;;1.93;;
2191;SDS011;1102;49.718;11.902;2022-08-01T09:59:57;2.10;;;1.97;;
2191;SDS011;1102;49.718;11.902;2022-08-01T10:02:33;3.23;;;2.37;;
2191;SDS011;1102;49.718;11.902;2022-08-01T10:05:04;1.83;;;1.73;;
2191;SDS011;1102;49.718;11.902;2022-08-01T10:07:34;2.30;;;2.10;;
2191;SDS011;1102;49.718;11.902;2022-08-01T10:10:12;1.87;;;1.77;;
2191;SDS011;1102;49.718;11.902;2022-08-01T10:12:41;2.30;;;2.20;;
2191;SDS011;1102;49.718;11.902;2022-08-01T10:15:10;3.03;;;2.23;;
2191;SDS011;1102;49.718;11.902;2022-08-01T10:17:39;4.03;;;2.67;;
2191;SDS011;1102;49.718;11.902;2022-08-01T10:20:18;2.10;;;1.90;;
2191;SDS011;1102;49.718;11.902;2022-08-01T10:23:00;5.60;;;1.97;;
2191;SDS011;1102;49.718;11.902;2022-08-01T10:25:37;2.40;;;1.60;;
2191;SDS011;1102;49.718;11.902;2022-08-01T10:28:14;1.70;;;1.60;;
2191;SDS011;1102;49.718;11.902;2022-08-01T10:30:49;1.93;;;1.83;;
2191;SDS011;1102;49.718;11.902;2022-08-01T10:33:18;1.90;;;1.77;;
2191;SDS011;1102;49.718;11.902;2022-08-01T10:36:08;2.00;;;1.90;;
2191;SDS011;1102;49.718;11.902;2022-08-01T10:38:35;2.30;;;1.60;;
2191;SDS011;1102;49.718;11.902;2022-08-01T10:41:03;2.80;;;1.87;;
2191;SDS011;1102;49.718;11.902;2022-08-01T10:43:32;2.70;;;1.80;;
2191;SDS011;1102;49.718;11.902;2022-08-01T10:46:02;1.80;;;1.70;;
2191;SDS011;1102;49.718;11.902;2022-08-01T10:48:42;1.77;;;1.60;;
2191;SDS011;1102;49.718;11.902;2022-08-01T10:51:17;3.57;;;1.97;;
2191;SDS011;1102;49.718;11.902;2022-08-01T10:53:47;2.40;;;2.20;;
2191;SDS011;1102;49.718;11.902;2022-08-01T10:56:22;5.47;;;2.10;;
2191;SDS011;1102;49.718;11.902;2022-08-01T10:59:00;2.60;;;1.80;;
2191;SDS011;1102;49.718;11.902;2022-08-01T11:01:36;1.70;;;1.60;;
2191;SDS011;1102;49.718;11.902;2022-08-01T11:04:13;2.30;;;2.20;;
2191;SDS011;1102;49.718;11.902;2022-08-01T11:09:30;2.03;;;1.90;;
2191;SDS011;1102;49.718;11.902;2022-08-01T11:12:14;2.57;;;2.10;;
2191;SDS011;1102;49.718;11.902;2022-08-01T11:17:38;2.60;;;2.37;;
2191;SDS011;1102;49.718;11.902;2022-08-01T11:23:14;2.50;;;2.10;;
2191;SDS011;1102;49.718;11.902;2022-08-01T11:28:32;2.50;;;2.30;;
2191;SDS011;1102;49.718;11.902;2022-08-01T11:38:43;4.03;;;2.10;;
2191;SDS011;1102;49.718;11.902;2022-08-01T11:52:18;4.13;;;1.80;;
2191;SDS011;1102;49.718;11.902;2022-08-01T11:57:29;2.60;;;2.40;;
2191;SDS011;1102;49.718;11.902;2022-08-01T12:00:03;2.13;;;2.03;;
2191;SDS011;1102;49.718;11.902;2022-08-01T12:02:41;2.20;;;2.10;;
2191;SDS011;1102;49.718;11.902;2022-08-01T12:05:11;3.00;;;2.70;;
2191;SDS011;1102;49.718;11.902;2022-08-01T12:07:41;7.90;;;3.03;;
2191;SDS011;1102;49.718;11.902;2022-08-01T12:10:10;3.03;;;2.87;;
2191;SDS011;1102;49.718;11.902;2022-08-01T12:13:00;2.97;;;2.77;;
2191;SDS011;1102;49.718;11.902;2022-08-01T12:15:33;2.70;;;2.50;;
2191;SDS011;1102;49.718;11.902;2022-08-01T12:18:02;3.90;;;3.60;;
2191;SDS011;1102;49.718;11.902;2022-08-01T12:20:32;3.53;;;3.23;;
2191;SDS011;1102;49.718;11.902;2022-08-01T12:23:19;3.37;;;3.17;;
2191;SDS011;1102;49.718;11.902;2022-08-01T12:25:50;3.33;;;3.13;;
2191;SDS011;1102;49.718;11.902;2022-08-01T12:28:18;2.90;;;2.53;;
2191;SDS011;1102;49.718;11.902;2022-08-01T12:30:46;3.60;;;3.40;;
2191;SDS011;1102;49.718;11.902;2022-08-01T12:33:16;2.90;;;2.70;;
2191;SDS011;1102;49.718;11.902;2022-08-01T12:35:45;3.20;;;2.53;;
2191;SDS011;1102;49.718;11.902;2022-08-01T12:38:15;3.10;;;2.90;;
2191;SDS011;1102;49.718;11.902;2022-08-01T12:40:44;2.97;;;2.77;;
2191;SDS011;1102;49.718;11.902;2022-08-01T12:43:17;3.30;;;3.10;;
2191;SDS011;1102;49.718;11.902;2022-08-01T12:45:53;2.90;;;2.70;;
2191;SDS011;1102;49.718;11.902;2022-08-01T12:48:22;3.10;;;2.90;;
2191;SDS011;1102;49.718;11.902;2022-08-01T12:50:51;3.70;;;2.93;;
2191;SDS011;1102;49.718;11.902;2022-08-01T12:53:19;2.83;;;2.63;;
2191;SDS011;1102;49.718;11.902;2022-08-01T12:55:48;2.90;;;2.70;;
2191;SDS011;1102;49.718;11.902;2022-08-01T12:58:29;3.17;;;2.73;;
2191;SDS011;1102;49.718;11.902;2022-08-01T13:01:05;2.93;;;2.73;;
2191;SDS011;1102;49.718;11.902;2022-08-01T13:03:34;2.77;;;2.30;;
2191;SDS011;1102;49.718;11.902;2022-08-01T13:06:11;3.30;;;3.10;;
2191;SDS011;1102;49.718;11.902;2022-08-01T13:08:41;3.40;;;2.23;;
2191;SDS011;1102;49.718;11.902;2022-08-01T13:11:09;2.90;;;2.60;;
2191;SDS011;1102;49.718;11.902;2022-08-01T13:13:50;6.63;;;2.57;;
2191;SDS011;1102;49.718;11.902;2022-08-01T13:16:18;3.40;;;2.47;;
2191;SDS011;1102;49.718;11.902;2022-08-01T13:19:03;3.00;;;2.70;;
2191;SDS011;1102;49.718;11.902;2022-08-01T13:21:31;2.90;;;2.70;;
2191;SDS011;1102;49.718;11.902;2022-08-01T13:24:22;2.50;;;2.30;;
2191;SDS011;1102;49.718;11.902;2022-08-01T13:26:59;3.10;;;2.50;;
2191;SDS011;1102;49.718;11.902;2022-08-01T13:32:13;3.10;;;2.90;;
2191;SDS011;1102;49.718;11.902;2022-08-01T13:35:02;2.83;;;2.63;;
2191;SDS011;1102;49.718;11.902;2022-08-01T13:37:29;3.10;;;2.83;;
2191;SDS011;1102;49.718;11.902;2022-08-01T13:39:57;2.73;;;2.50;;
2191;SDS011;1102;49.718;11.902;2022-08-01T13:42:24;4.97;;;2.90;;
2191;SDS011;1102;49.718;11.902;2022-08-01T13:44:51;5.77;;;2.50;;
2191;SDS011;1102;49.718;11.902;2022-08-01T13:47:18;6.60;;;3.33;;
2191;SDS011;1102;49.718;11.902;2022-08-01T13:49:58;2.63;;;2.43;;
2191;SDS011;1102;49.718;11.902;2022-08-01T13:52:28;2.47;;;2.37;;
2191;SDS011;1102;49.718;11.902;2022-08-01T13:54:55;2.40;;;2.20;;
2191;SDS011;1102;49.718;11.902;2022-08-01T13:57:21;2.30;;;2.10;;
2191;SDS011;1102;49.718;11.902;2022-08-01T13:59:48;2.20;;;2.00;;
2191;SDS011;1102;49.718;11.902;2022-08-01T14:02:15;3.40;;;2.27;;
2191;SDS011;1102;49.718;11.902;2022-08-01T14:04:42;3.37;;;2.17;;
2191;SDS011;1102;49.718;11.902;2022-08-01T14:07:08;2.53;;;2.37;;
2191;SDS011;1102;49.718;11.902;2022-08-01T14:09:40;2.30;;;2.10;;
2191;SDS011;1102;49.718;11.902;2022-08-01T14:12:28;4.77;;;2.50;;
2191;SDS011;1102;49.718;11.902;2022-08-01T14:14:54;2.20;;;2.00;;
2191;SDS011;1102;49.718;11.902;2022-08-01T14:17:21;3.50;;;2.23;;
2191;SDS011;1102;49.718;11.902;2022-08-01T14:19:48;7.03;;;2.37;;
2191;SDS011;1102;49.718;11.902;2022-08-01T14:22:14;2.60;;;2.40;;
2191;SDS011;1102;49.718;11.902;2022-08-01T14:24:41;2.80;;;2.63;;
2191;SDS011;1102;49.718;11.902;2022-08-01T14:27:08;2.10;;;2.00;;
2191;SDS011;1102;49.718;11.902;2022-08-01T14:29:35;2.60;;;2.40;;
2191;SDS011;1102;49.718;11.902;2022-08-01T14:32:21;2.40;;;2.20;;
2191;SDS011;1102;49.718;11.902;2022-08-01T14:34:54;5.33;;;2.67;;
2191;SDS011;1102;49.718;11.902;2022-08-01T14:37:22;6.67;;;2.20;;
2191;SDS011;1102;49.718;11.902;2022-08-01T14:39:56;2.20;;;2.10;;
2191;SDS011;1102;49.718;11.902;2022-08-01T14:42:24;2.57;;;2.47;;
2191;SDS011;1102;49.718;11.902;2022-08-01T14:44:52;2.30;;;2.20;;
2191;SDS011;1102;49.718;11.902;2022-08-01T14:47:18;2.53;;;2.33;;
2191;SDS011;1102;49.718;11.902;2022-08-01T14:49:47;2.40;;;2.17;;
2191;SDS011;1102;49.718;11.902;2022-08-01T14:52:15;1.87;;;1.70;;
2191;SDS011;1102;49.718;11.902;2022-08-01T14:54:41;2.47;;;2.27;;
2191;SDS011;1102;49.718;11.902;2022-08-01T14:57:08;2.30;;;2.10;;
2191;SDS011;1102;49.718;11.902;2022-08-01T14:59:35;2.10;;;2.00;;
2191;SDS011;1102;49.718;11.902;2022-08-01T15:02:02;2.10;;;2.00;;
2191;SDS011;1102;49.718;11.902;2022-08-01T15:04:30;2.53;;;2.13;;
2191;SDS011;1102;49.718;11.902;2022-08-01T15:06:56;1.93;;;1.83;;
2191;SDS011;1102;49.718;11.902;2022-08-01T15:09:23;3.67;;;2.07;;
2191;SDS011;1102;49.718;11.902;2022-08-01T15:11:50;2.00;;;1.90;;
2191;SDS011;1102;49.718;11.902;2022-08-01T15:14:17;3.20;;;2.37;;
2191;SDS011;1102;49.718;11.902;2022-08-01T15:17:02;2.10;;;1.90;;
2191;SDS011;1102;49.718;11.902;2022-08-01T15:19:29;2.17;;;2.07;;
2191;SDS011;1102;49.718;11.902;2022-08-01T15:21:56;2.40;;;2.27;;
2191;SDS011;1102;49.718;11.902;2022-08-01T15:24:24;2.50;;;1.87;;
2191;SDS011;1102;49.718;11.902;2022-08-01T15:26:51;2.03;;;1.93;;
2191;SDS011;1102;49.718;11.902;2022-08-01T15:29:18;1.83;;;1.57;;
2191;SDS011;1102;49.718;11.902;2022-08-01T15:31:45;2.37;;;2.17;;
2191;SDS011;1102;49.718;11.902;2022-08-01T15:34:11;1.73;;;1.63;;
2191;SDS011;1102;49.718;11.902;2022-08-01T15:36:38;2.03;;;1.93;;
2191;SDS011;1102;49.718;11.902;2022-08-01T15:39:11;4.30;;;1.87;;
2191;SDS011;1102;49.718;11.902;2022-08-01T15:41:39;2.00;;;1.90;;
2191;SDS011;1102;49.718;11.902;2022-08-01T15:44:05;2.50;;;1.83;;
2191;SDS011;1102;49.718;11.902;2022-08-01T15:46:32;3.33;;;2.20;;
2191;SDS011;1102;49.718;11.902;2022-08-01T15:49:02;1.93;;;1.70;;
2191;SDS011;1102;49.718;11.902;2022-08-01T15:51:32;2.40;;;2.20;;
2191;SDS011;1102;49.718;11.902;2022-08-01T15:53:59;2.53;;;1.80;;
2191;SDS011;1102;49.718;11.902;2022-08-01T15:56:36;4.17;;;2.13;;
2191;SDS011;1102;49.718;11.902;2022-08-01T15:59:05;2.10;;;1.90;;
2191;SDS011;1102;49.718;11.902;2022-08-01T16:01:31;1.80;;;1.70;;
2191;SDS011;1102;49.718;11.902;2022-08-01T16:03:58;1.83;;;1.73;;
2191;SDS011;1102;49.718;11.902;2022-08-01T16:06:26;2.13;;;1.93;;
2191;SDS011;1102;49.718;11.902;2022-08-01T16:08:53;2.40;;;2.20;;
2191;SDS011;1102;49.718;11.902;2022-08-01T16:11:20;2.67;;;1.57;;
2191;SDS011;1102;49.718;11.902;2022-08-01T16:13:49;1.80;;;1.70;;
2191;SDS011;1102;49.718;11.902;2022-08-01T16:16:16;2.00;;;1.90;;
2191;SDS011;1102;49.718;11.902;2022-08-01T16:18:43;3.60;;;2.30;;